createdAt,value
2019-04-04T00:01:17.099Z,8.98
2019-04-04T00:03:45.943Z,8.45
2019-04-04T00:06:14.407Z,8.38
2019-04-04T00:08:42.859Z,8.90
2019-04-04T00:11:11.600Z,7.30
2019-04-04T00:13:42.081Z,8.18
2019-04-04T00:16:10.563Z,7.65
2019-04-04T00:18:39.026Z,7.70
2019-04-04T00:21:07.493Z,7.05
2019-04-04T00:23:38.083Z,7.28
2019-04-04T00:26:06.446Z,7.28
2019-04-04T00:28:35.195Z,7.08
2019-04-04T00:31:03.710Z,6.47
2019-04-04T00:33:32.475Z,7.08
2019-04-04T00:36:02.655Z,6.50
2019-04-04T00:38:31.111Z,7.35
2019-04-04T00:40:59.635Z,6.42
2019-04-04T00:43:28.106Z,6.60
2019-04-04T00:45:56.558Z,6.92
2019-04-04T00:48:25.334Z,6.67
2019-04-04T00:50:53.782Z,7.03
2019-04-04T00:53:22.607Z,7.05
2019-04-04T00:55:51.063Z,6.30
2019-04-04T00:58:20.797Z,5.95
2019-04-04T01:00:49.919Z,5.65
2019-04-04T01:03:18.708Z,5.47
2019-04-04T01:05:47.156Z,5.12
2019-04-04T01:08:15.980Z,5.78
2019-04-04T01:10:44.772Z,5.03
2019-04-04T01:13:13.239Z,4.60
2019-04-04T01:15:42.056Z,4.85
2019-04-04T01:18:10.843Z,4.97
2019-04-04T01:20:39.296Z,4.87
2019-04-04T01:23:07.763Z,5.12
2019-04-04T01:25:36.207Z,5.47
2019-04-04T01:28:07.791Z,4.95
2019-04-04T01:30:34.923Z,4.83
2019-04-04T01:33:03.936Z,4.97
2019-04-04T01:35:32.439Z,4.58
2019-04-04T01:38:01.296Z,4.55
2019-04-04T01:40:32.914Z,4.92
2019-04-04T01:43:00.262Z,4.20
2019-04-04T01:45:29.001Z,4.37
2019-04-04T01:47:57.796Z,4.37
2019-04-04T01:50:26.583Z,4.10
2019-04-04T01:52:55.107Z,3.92
2019-04-04T01:55:23.572Z,3.92
2019-04-04T01:57:52.023Z,3.85
2019-04-04T02:00:20.658Z,4.22
2019-04-04T02:02:49.965Z,3.85
2019-04-04T02:05:19.554Z,3.37
2019-04-04T02:07:48.259Z,3.87
2019-04-04T02:10:17.029Z,3.12
2019-04-04T02:12:45.827Z,3.42
2019-04-04T02:15:14.947Z,3.42
2019-04-04T02:17:43.929Z,3.47
2019-04-04T02:20:12.702Z,3.40
2019-04-04T02:22:41.161Z,3.50
2019-04-04T02:25:10.099Z,3.92
2019-04-04T02:27:38.547Z,3.65
2019-04-04T02:30:08.504Z,3.40
2019-04-04T02:32:37.402Z,3.33
2019-04-04T02:35:10.273Z,3.52
2019-04-04T02:37:37.953Z,3.85
2019-04-04T02:40:08.991Z,3.30
2019-04-04T02:42:38.103Z,3.85
2019-04-04T02:45:09.976Z,3.72
2019-04-04T02:47:38.420Z,3.70
2019-04-04T02:50:08.090Z,3.70
2019-04-04T02:52:36.844Z,3.30
2019-04-04T02:55:05.779Z,3.27
2019-04-04T02:57:34.280Z,2.85
2019-04-04T03:00:02.976Z,3.00
2019-04-04T03:02:31.419Z,3.30
2019-04-04T03:05:00.202Z,3.02
2019-04-04T03:07:30.808Z,3.08
2019-04-04T03:09:59.214Z,2.83
2019-04-04T03:12:27.659Z,2.95
2019-04-04T03:14:56.136Z,3.22
2019-04-04T03:17:24.976Z,2.98
2019-04-04T03:19:53.444Z,3.20
2019-04-04T03:22:21.888Z,3.12
2019-04-04T03:24:50.358Z,3.35
2019-04-04T03:27:18.878Z,2.52
2019-04-04T03:29:47.338Z,2.95
2019-04-04T03:32:16.614Z,2.45
2019-04-04T03:34:49.882Z,2.67
2019-04-04T03:37:17.063Z,2.80
2019-04-04T03:39:45.855Z,2.77
2019-04-04T03:42:14.657Z,2.70
2019-04-04T03:44:43.540Z,2.30
2019-04-04T03:47:12.339Z,2.30
2019-04-04T03:49:41.139Z,2.25
2019-04-04T03:52:11.233Z,2.10
2019-04-04T03:54:40.455Z,2.00
2019-04-04T03:57:12.270Z,2.42
2019-04-04T03:59:39.092Z,1.67
2019-04-04T04:02:07.631Z,1.90
2019-04-04T04:04:36.086Z,1.85
2019-04-04T04:07:04.937Z,1.98
2019-04-04T04:09:33.460Z,2.30
2019-04-04T04:12:02.416Z,2.25
2019-04-04T04:14:30.864Z,1.80
2019-04-04T04:16:59.404Z,1.80
2019-04-04T04:19:30.964Z,2.00
2019-04-04T04:21:58.707Z,2.10
2019-04-04T04:24:29.579Z,1.72
2019-04-04T04:26:57.358Z,1.80
2019-04-04T04:29:29.577Z,1.82
2019-04-04T04:31:55.995Z,2.72
2019-04-04T04:34:24.727Z,2.30
2019-04-04T04:36:53.264Z,2.02
2019-04-04T04:39:21.782Z,1.98
2019-04-04T04:41:52.973Z,2.00
2019-04-04T04:44:20.425Z,2.30
2019-04-04T04:46:50.281Z,2.58
2019-04-04T04:49:23.193Z,2.75
2019-04-04T04:51:49.923Z,2.25
2019-04-04T04:54:20.369Z,2.58
2019-04-04T04:56:48.556Z,2.70
2019-04-04T04:59:17.007Z,3.02
2019-04-04T05:01:45.847Z,2.40
2019-04-04T05:04:14.643Z,3.10
2019-04-04T05:06:43.106Z,2.65
2019-04-04T05:09:13.676Z,3.40
2019-04-04T05:11:41.811Z,3.22
2019-04-04T05:14:10.259Z,2.75
2019-04-04T05:16:38.742Z,3.58
2019-04-04T05:19:07.253Z,3.40
2019-04-04T05:21:36.080Z,3.40
2019-04-04T05:24:04.522Z,3.55
2019-04-04T05:26:34.500Z,3.30
2019-04-04T05:29:03.605Z,4.30
2019-04-04T05:31:32.134Z,4.30
2019-04-04T05:34:00.627Z,4.15
2019-04-04T05:36:29.131Z,4.35
2019-04-04T05:38:57.945Z,3.70
2019-04-04T05:41:27.248Z,3.58
2019-04-04T05:43:57.475Z,3.98
2019-04-04T05:46:26.363Z,3.67
2019-04-04T05:48:54.815Z,3.47
2019-04-04T05:51:23.263Z,2.85
2019-04-04T05:53:52.031Z,2.80
2019-04-04T05:56:20.499Z,3.15
2019-04-04T05:58:50.998Z,5.22
2019-04-04T06:01:21.279Z,7.42
2019-04-04T06:03:50.092Z,7.10
2019-04-04T06:06:18.958Z,6.17
2019-04-04T06:08:47.771Z,5.53
2019-04-04T06:11:16.283Z,5.85
2019-04-04T06:13:44.755Z,5.50
2019-04-04T06:16:13.199Z,5.58
2019-04-04T06:18:43.006Z,4.97
2019-04-04T06:21:12.130Z,5.62
2019-04-04T06:23:40.594Z,5.65
2019-04-04T06:26:09.055Z,6.00
2019-04-04T06:28:37.894Z,5.90
2019-04-04T06:31:06.688Z,6.10
2019-04-04T06:33:35.437Z,7.35
2019-04-04T06:36:04.783Z,6.47
2019-04-04T06:38:33.579Z,6.95
2019-04-04T06:41:02.589Z,8.93
2019-04-04T06:43:31.120Z,8.08
2019-04-04T06:45:59.654Z,8.30
2019-04-04T06:48:29.350Z,8.08
2019-04-04T06:50:58.716Z,8.43
2019-04-04T06:53:27.464Z,8.03
2019-04-04T06:55:55.982Z,7.55
2019-04-04T06:58:24.736Z,7.90
2019-04-04T07:00:53.531Z,7.40
2019-04-04T07:03:22.331Z,7.65
2019-04-04T07:05:50.783Z,7.03
2019-04-04T07:08:19.251Z,8.00
2019-04-04T07:10:57.358Z,7.53
2019-04-04T07:13:22.011Z,7.75
2019-04-04T07:16:05.396Z,6.90
2019-04-04T07:18:19.583Z,7.15
2019-04-04T07:20:48.902Z,7.28
2019-04-04T07:23:17.480Z,7.45
2019-04-04T07:25:45.930Z,7.87
2019-04-04T07:28:14.394Z,8.05
2019-04-04T07:30:42.843Z,7.25
2019-04-04T07:33:12.663Z,7.92
2019-04-04T07:35:41.747Z,8.45
2019-04-04T07:38:10.471Z,7.47
2019-04-04T07:40:39.231Z,8.73
2019-04-04T07:43:08.760Z,7.97
2019-04-04T07:45:37.636Z,7.87
2019-04-04T07:48:06.427Z,8.28
2019-04-04T07:50:35.216Z,8.33
2019-04-04T07:53:04.873Z,8.20
2019-04-04T07:55:34.244Z,8.40
2019-04-04T07:58:02.769Z,8.45
2019-04-04T08:00:31.331Z,8.33
2019-04-04T08:02:59.849Z,7.85
2019-04-04T08:05:28.463Z,9.08
2019-04-04T08:07:56.992Z,10.50
2019-04-04T08:10:25.767Z,9.63
2019-04-04T08:12:54.218Z,9.58
2019-04-04T08:15:23.047Z,8.85
2019-04-04T08:17:51.495Z,9.08
2019-04-04T08:20:19.975Z,9.50
2019-04-04T08:22:48.495Z,9.53
2019-04-04T08:25:17.297Z,10.40
2019-04-04T08:27:46.085Z,9.98
2019-04-04T08:30:15.295Z,9.78
2019-04-04T08:32:44.079Z,10.13
2019-04-04T08:35:12.559Z,10.00
2019-04-04T08:37:41.367Z,9.93
2019-04-04T08:40:10.208Z,10.40
2019-04-04T08:42:38.657Z,9.98
2019-04-04T08:45:07.452Z,10.55
2019-04-04T08:47:35.926Z,11.20
2019-04-04T08:50:05.883Z,10.75
2019-04-04T08:52:34.360Z,12.23
2019-04-04T08:55:02.892Z,12.10
2019-04-04T08:57:31.434Z,12.55
2019-04-04T08:59:59.887Z,12.98
2019-04-04T09:02:28.359Z,12.35
2019-04-04T09:04:56.813Z,13.80
2019-04-04T09:07:25.282Z,13.80
2019-04-04T09:09:53.805Z,13.98
2019-04-04T09:12:22.487Z,13.62
2019-04-04T09:14:50.938Z,14.58
2019-04-04T09:17:19.421Z,15.40
2019-04-04T09:19:48.283Z,13.95
2019-04-04T09:22:16.763Z,14.58
2019-04-04T09:24:45.223Z,14.35
2019-04-04T09:27:13.695Z,15.15
2019-04-04T09:29:42.159Z,15.98
2019-04-04T09:32:10.703Z,15.30
2019-04-04T09:34:39.164Z,15.90
2019-04-04T09:37:08.892Z,16.20
2019-04-04T09:39:37.583Z,15.98
2019-04-04T09:42:06.063Z,15.98
2019-04-04T09:44:34.887Z,16.82
2019-04-04T09:47:05.514Z,17.23
2019-04-04T09:49:33.899Z,17.80
2019-04-04T09:52:02.375Z,17.05
2019-04-04T09:54:31.180Z,16.23
2019-04-04T09:56:59.663Z,16.87
2019-04-04T09:59:28.465Z,17.73
2019-04-04T10:01:56.939Z,17.40
2019-04-04T10:04:25.394Z,18.10
2019-04-04T10:06:53.943Z,18.95
2019-04-04T10:09:22.710Z,18.87
2019-04-04T10:11:51.179Z,19.35
2019-04-04T10:14:19.992Z,18.67
2019-04-04T10:16:48.462Z,19.07
2019-04-04T10:19:17.264Z,18.17
2019-04-04T10:21:45.736Z,19.02
2019-04-04T10:24:14.543Z,18.02
2019-04-04T10:26:43.019Z,19.90
2019-04-04T10:29:11.846Z,19.82
2019-04-04T10:31:40.723Z,20.15
2019-04-04T10:34:09.178Z,19.75
2019-04-04T10:36:38.003Z,18.65
2019-04-04T10:39:09.535Z,19.98
2019-04-04T10:41:38.030Z,18.10
2019-04-04T10:44:06.488Z,19.62
2019-04-04T10:46:35.018Z,18.62
2019-04-04T10:49:03.491Z,17.90
2019-04-04T10:51:32.287Z,19.42
2019-04-04T10:54:01.087Z,17.73
2019-04-04T10:56:29.876Z,18.10
2019-04-04T10:58:58.351Z,18.07
2019-04-04T11:01:27.159Z,18.92
2019-04-04T11:03:55.635Z,17.17
2019-04-04T11:06:24.096Z,18.85
2019-04-04T11:08:52.919Z,17.57
2019-04-04T11:11:21.383Z,18.10
2019-04-04T11:13:49.944Z,19.00
2019-04-04T11:16:29.510Z,16.50
2019-04-04T11:18:48.891Z,17.20
2019-04-04T11:21:17.349Z,20.48
2019-04-04T11:23:45.824Z,22.30
2019-04-04T11:26:14.576Z,20.10
2019-04-04T11:28:43.055Z,20.23
2019-04-04T11:31:11.856Z,18.87
2019-04-04T11:33:40.643Z,20.32
2019-04-04T11:36:09.439Z,19.40
2019-04-04T11:38:38.227Z,19.52
2019-04-04T11:41:07.019Z,20.88
2019-04-04T11:43:35.819Z,19.42
2019-04-04T11:46:04.283Z,20.23
2019-04-04T11:48:32.816Z,19.55
2019-04-04T11:51:01.580Z,20.90
2019-04-04T11:53:30.371Z,20.50
2019-04-04T11:55:58.872Z,20.85
2019-04-04T11:58:27.336Z,21.82
2019-04-04T12:00:57.775Z,23.98
2019-04-04T12:03:26.571Z,23.12
2019-04-04T12:05:55.365Z,21.45
2019-04-04T12:08:24.263Z,20.65
2019-04-04T12:10:53.159Z,21.23
2019-04-04T12:13:21.704Z,23.10
2019-04-04T12:15:50.179Z,26.95
2019-04-04T12:18:18.919Z,28.98
2019-04-04T12:20:47.707Z,26.05
2019-04-04T12:23:16.507Z,24.18
2019-04-04T12:25:45.402Z,25.75
2019-04-04T12:28:13.935Z,24.40
2019-04-04T12:30:42.411Z,25.02
2019-04-04T12:33:10.867Z,24.92
2019-04-04T12:35:39.652Z,26.93
2019-04-04T12:38:08.107Z,21.02
2019-04-04T12:40:36.923Z,24.32
2019-04-04T12:43:06.491Z,23.83
2019-04-04T12:45:34.968Z,26.17
2019-04-04T12:48:03.712Z,26.07
2019-04-04T12:50:32.261Z,26.20
2019-04-04T12:53:00.721Z,26.27
2019-04-04T12:55:29.198Z,28.02
2019-04-04T12:57:57.735Z,27.62
2019-04-04T13:00:26.555Z,27.32
2019-04-04T13:02:55.347Z,28.17
2019-04-04T13:05:23.819Z,29.72
2019-04-04T13:07:52.307Z,28.30
2019-04-04T13:10:32.519Z,30.92
2019-04-04T13:12:51.948Z,32.35
2019-04-04T13:15:20.847Z,31.33
2019-04-04T13:17:49.302Z,30.08
2019-04-04T13:20:18.229Z,32.63
2019-04-04T13:22:46.696Z,34.60
2019-04-04T13:25:15.611Z,34.50
2019-04-04T13:27:44.405Z,35.63
2019-04-04T13:30:14.575Z,34.48
2019-04-04T13:32:43.051Z,35.88
2019-04-04T13:35:11.806Z,35.88
2019-04-04T13:37:40.351Z,34.50
2019-04-04T13:40:08.951Z,38.00
2019-04-04T13:42:37.772Z,37.55
2019-04-04T13:45:07.171Z,36.88
2019-04-04T13:47:38.214Z,35.15
2019-04-04T13:50:08.561Z,38.17
2019-04-04T13:52:37.109Z,36.70
2019-04-04T13:55:06.540Z,39.58
2019-04-04T13:57:35.441Z,37.17
2019-04-04T14:00:06.472Z,38.02
2019-04-04T14:02:35.284Z,39.38
2019-04-04T14:05:10.178Z,37.95
2019-04-04T14:07:36.182Z,40.05
2019-04-04T14:10:06.547Z,38.88
2019-04-04T14:12:35.028Z,40.12
2019-04-04T14:15:05.526Z,38.38
2019-04-04T14:17:34.002Z,36.93
2019-04-04T14:20:02.766Z,38.67
2019-04-04T14:22:31.319Z,39.85
2019-04-04T14:24:59.779Z,40.35
2019-04-04T14:27:28.259Z,42.15
2019-04-04T14:29:57.015Z,41.83
2019-04-04T14:32:25.807Z,41.37
2019-04-04T14:34:54.598Z,40.55
2019-04-04T14:37:23.079Z,39.63
2019-04-04T14:39:51.884Z,39.00
2019-04-04T14:42:20.672Z,39.15
2019-04-04T14:44:49.164Z,40.05
2019-04-04T14:47:17.957Z,42.13
2019-04-04T14:49:46.601Z,37.08
2019-04-04T14:52:15.050Z,37.05
2019-04-04T14:54:43.604Z,36.60
2019-04-04T14:57:12.059Z,35.73
2019-04-04T14:59:40.534Z,34.70
2019-04-04T15:02:09.280Z,32.63
2019-04-04T15:04:38.064Z,32.05
2019-04-04T15:07:06.974Z,31.20
2019-04-04T15:09:35.863Z,32.83
2019-04-04T15:12:04.570Z,33.23
2019-04-04T15:14:33.340Z,33.60
2019-04-04T15:17:02.139Z,30.68
2019-04-04T15:19:30.618Z,33.58
2019-04-04T15:21:59.153Z,30.92
2019-04-04T15:24:27.702Z,33.70
2019-04-04T15:26:56.497Z,33.92
2019-04-04T15:29:25.044Z,35.75
2019-04-04T15:31:53.647Z,35.70
2019-04-04T15:34:22.135Z,37.58
2019-04-04T15:36:50.943Z,37.95
2019-04-04T15:39:19.422Z,38.45
2019-04-04T15:41:48.140Z,39.10
2019-04-04T15:44:16.619Z,43.78
2019-04-04T15:46:45.403Z,45.12
2019-04-04T15:49:14.299Z,43.35
2019-04-04T15:51:42.759Z,45.55
2019-04-04T15:54:11.235Z,45.30
2019-04-04T15:56:39.691Z,45.28
2019-04-04T15:59:08.447Z,45.52
2019-04-04T16:01:37.240Z,48.15
2019-04-04T16:04:05.718Z,49.42
2019-04-04T16:06:34.175Z,46.42
2019-04-04T16:09:04.234Z,47.25
2019-04-04T16:11:32.768Z,48.02
2019-04-04T16:14:01.611Z,44.93
2019-04-04T16:16:30.076Z,46.53
2019-04-04T16:18:58.552Z,46.88
2019-04-04T16:21:27.088Z,48.60
2019-04-04T16:23:55.563Z,48.98
2019-04-04T16:26:24.344Z,52.35
2019-04-04T16:28:53.144Z,53.50
2019-04-04T16:31:21.607Z,52.55
2019-04-04T16:33:50.155Z,52.25
2019-04-04T16:36:18.908Z,54.65
2019-04-04T16:38:47.383Z,52.27
2019-04-04T16:41:15.840Z,56.08
2019-04-04T16:43:44.393Z,56.98
2019-04-04T16:46:13.259Z,54.70
2019-04-04T16:48:41.735Z,56.08
2019-04-04T16:51:10.191Z,58.33
2019-04-04T16:53:39.021Z,57.40
2019-04-04T16:56:07.546Z,57.00
2019-04-04T16:58:37.012Z,60.05
2019-04-04T17:01:05.667Z,56.73
2019-04-04T17:03:34.512Z,59.77
2019-04-04T17:06:03.150Z,59.40
2019-04-04T17:08:31.706Z,60.65
2019-04-04T17:11:00.166Z,56.90
2019-04-04T17:13:28.639Z,59.53
2019-04-04T17:15:57.094Z,60.03
2019-04-04T17:18:25.825Z,62.00
2019-04-04T17:20:54.619Z,63.70
2019-04-04T17:23:23.417Z,61.35
2019-04-04T17:25:51.966Z,62.25
2019-04-04T17:28:20.687Z,63.83
2019-04-04T17:30:49.588Z,60.95
2019-04-04T17:33:18.483Z,60.85
2019-04-04T17:35:47.416Z,64.12
2019-04-04T17:38:16.267Z,60.92
2019-04-04T17:40:44.743Z,62.13
2019-04-04T17:43:13.203Z,63.42
2019-04-04T17:45:41.762Z,63.13
2019-04-04T17:48:10.591Z,62.30
2019-04-04T17:50:39.422Z,61.75
2019-04-04T17:53:08.695Z,66.72
2019-04-04T17:55:37.917Z,67.25
2019-04-04T17:58:07.098Z,64.58
2019-04-04T18:00:36.019Z,63.87
2019-04-04T18:03:04.555Z,63.28
2019-04-04T18:05:33.027Z,66.95
2019-04-04T18:08:01.788Z,64.77
2019-04-04T18:10:30.272Z,62.13
2019-04-04T18:12:59.165Z,63.30
2019-04-04T18:15:27.639Z,62.95
2019-04-04T18:17:56.741Z,61.13
2019-04-04T18:20:25.344Z,60.65
2019-04-04T18:22:54.063Z,58.63
2019-04-04T18:25:22.543Z,56.10
2019-04-04T18:27:51.311Z,50.52
2019-04-04T18:30:20.061Z,50.83
2019-04-04T18:32:48.791Z,52.48
2019-04-04T18:35:17.665Z,52.83
2019-04-04T18:37:46.485Z,55.40
2019-04-04T18:40:15.477Z,52.98
2019-04-04T18:42:53.260Z,47.27
2019-04-04T18:45:15.011Z,46.10
2019-04-04T18:47:43.904Z,42.78
2019-04-04T18:50:12.647Z,38.80
2019-04-04T18:52:41.158Z,39.55
2019-04-04T18:55:18.982Z,37.08
2019-04-04T18:57:39.904Z,37.70
2019-04-04T19:00:13.088Z,35.98
2019-04-04T19:02:42.495Z,35.60
2019-04-04T19:05:13.229Z,37.33
2019-04-04T19:07:41.941Z,36.68
2019-04-04T19:10:11.955Z,36.33
2019-04-04T19:12:40.410Z,34.48
2019-04-04T19:15:09.332Z,35.20
2019-04-04T19:17:37.861Z,35.43
2019-04-04T19:20:09.931Z,32.17
2019-04-04T19:22:38.463Z,33.92
2019-04-04T19:25:07.494Z,33.83
2019-04-04T19:27:36.464Z,32.23
2019-04-04T19:30:08.731Z,34.25
2019-04-04T19:32:37.524Z,33.40
2019-04-04T19:35:08.062Z,32.58
2019-04-04T19:37:36.951Z,33.92
2019-04-04T19:40:08.598Z,34.40
2019-04-04T19:42:37.133Z,35.05
2019-04-04T19:45:07.939Z,32.93
2019-04-04T19:47:36.731Z,31.00
2019-04-04T19:50:10.868Z,33.73
2019-04-04T19:52:39.754Z,34.33
2019-04-04T19:55:10.160Z,35.83
2019-04-04T19:57:38.691Z,34.85
2019-04-04T20:00:08.703Z,37.20
2019-04-04T20:02:37.475Z,35.13
2019-04-04T20:05:07.188Z,34.98
2019-04-04T20:07:35.975Z,36.65
2019-04-04T20:10:07.022Z,35.28
2019-04-04T20:12:35.915Z,37.60
2019-04-04T20:15:07.070Z,35.13
2019-04-04T20:17:35.610Z,37.08
2019-04-04T20:20:07.363Z,39.18
2019-04-04T20:22:35.823Z,40.10
2019-04-04T20:25:06.668Z,38.98
2019-04-04T20:27:35.125Z,38.45
2019-04-04T20:30:05.631Z,38.25
2019-04-04T20:32:34.444Z,38.83
2019-04-04T20:35:03.162Z,37.08
2019-04-04T20:37:31.619Z,40.15
2019-04-04T20:40:00.087Z,38.60
2019-04-04T20:42:47.968Z,40.23
2019-04-04T20:45:16.456Z,40.43
2019-04-04T20:47:45.011Z,40.03
2019-04-04T20:50:13.631Z,43.65
2019-04-04T20:52:43.519Z,41.98
2019-04-04T20:55:12.407Z,42.00
2019-04-04T20:57:40.863Z,41.33
2019-04-04T21:00:09.675Z,42.90
2019-04-04T21:02:38.500Z,39.78
2019-04-04T21:05:07.737Z,43.25
2019-04-04T21:07:36.582Z,41.85
2019-04-04T21:10:09.139Z,43.60
2019-04-04T21:12:37.951Z,41.90
2019-04-04T21:15:07.443Z,40.08
2019-04-04T21:17:35.922Z,40.92
2019-04-04T21:20:06.868Z,40.48
2019-04-04T21:22:35.405Z,41.75
2019-04-04T21:25:04.467Z,41.98
2019-04-04T21:27:32.935Z,45.55
2019-04-04T21:30:01.756Z,43.55
2019-04-04T21:32:30.649Z,43.05
2019-04-04T21:34:59.174Z,43.02
2019-04-04T21:37:27.648Z,41.23
2019-04-04T21:39:56.175Z,42.00
2019-04-04T21:42:24.723Z,43.33
2019-04-04T21:44:53.183Z,43.63
2019-04-04T21:47:21.651Z,42.98
2019-04-04T21:49:50.450Z,42.20
2019-04-04T21:52:19.256Z,43.80
2019-04-04T21:54:47.707Z,42.13
2019-04-04T21:57:16.178Z,43.85
2019-04-04T21:59:44.631Z,43.73
2019-04-04T22:02:13.094Z,43.23
2019-04-04T22:04:41.884Z,42.03
2019-04-04T22:07:10.351Z,44.40
2019-04-04T22:09:39.164Z,43.25
2019-04-04T22:12:07.638Z,44.83
2019-04-04T22:14:36.162Z,42.03
2019-04-04T22:17:04.715Z,43.70
2019-04-04T22:19:33.511Z,44.35
2019-04-04T22:22:01.987Z,45.55
2019-04-04T22:24:30.800Z,44.98
2019-04-04T22:26:59.691Z,44.18
2019-04-04T22:29:28.492Z,45.78
2019-04-04T22:31:57.371Z,45.88
2019-04-04T22:34:25.827Z,43.50
2019-04-04T22:36:54.294Z,43.13
2019-04-04T22:39:23.144Z,43.28
2019-04-04T22:41:51.615Z,45.25
2019-04-04T22:44:20.062Z,44.38
2019-04-04T22:46:48.813Z,42.90
2019-04-04T22:49:17.334Z,45.40
2019-04-04T22:51:45.806Z,46.20
2019-04-04T22:54:14.671Z,44.98
2019-04-04T22:56:43.148Z,47.05
2019-04-04T22:59:11.955Z,43.08
2019-04-04T23:01:40.847Z,46.63
2019-04-04T23:04:09.639Z,45.73
2019-04-04T23:06:38.111Z,44.20
2019-04-04T23:09:08.064Z,45.20
2019-04-04T23:11:36.535Z,42.75
2019-04-04T23:14:05.050Z,47.15
2019-04-04T23:16:33.519Z,44.08
2019-04-04T23:19:02.033Z,45.75
2019-04-04T23:21:30.527Z,43.75
2019-04-04T23:23:59.042Z,43.33
2019-04-04T23:26:27.858Z,43.73
2019-04-04T23:28:56.323Z,45.28
2019-04-04T23:31:25.242Z,45.35
2019-04-04T23:33:54.127Z,45.73
2019-04-04T23:36:34.394Z,46.50
2019-04-04T23:38:53.359Z,45.12
2019-04-04T23:41:21.830Z,46.37
2019-04-04T23:43:50.636Z,45.03
2019-04-04T23:46:19.527Z,47.90
2019-04-04T23:48:47.977Z,46.48
2019-04-04T23:51:16.532Z,47.45
2019-04-04T23:53:45.060Z,46.80
2019-04-04T23:56:13.534Z,47.67
2019-04-04T23:58:42.263Z,48.95
